YPEA

RAAF Base Pearce Airport

Bullsbrook, Australia
TAF YPEA 201640Z 2018/2112 02007KT CAVOK FM210300 30012KT 9999 -SHRA SCT030 BKN100 PROB30 INTER 2106/2112 VRB25G40KT 4000 TSRA SCT030 FEW080CB
Issued Valid From Valid To
Apr-20 @ 16:40 UTC
(2 hours ago)
Apr-20 @ 18:00 UTC
(30 minutes ago)
Apr-21 @ 12:00 UTC
(in 17 hours)
Apr-20 @ 18:00 to Apr-21 @ 03:00
TAF YPEA 201640Z 2018/2112 02007KT CAVOK
Wind Visibility Clouds Conditions
20° at 7 knots 10,000+ meters
  • No significant clouds
From Apr-21 @ 03:00 to Apr-21 @ 12:00
FM210300 30012KT 9999 -SHRA SCT030 BKN100
Wind Visibility Clouds Conditions
300° at 12 knots 10,000+ meters
  • Scattered at 3,000' AGL
  • Broken at 10,000' AGL
  • Light Rain
Temporary  (Probability 30%) Apr-21 @ 06:00 to Apr-21 @ 12:00
PROB30 INTER 2106/2112 VRB25G40KT 4000 TSRA SCT030 FEW080CB
Wind Visibility Clouds Conditions
Variable at 25 knots
 Gusting to 40 knots
4,007 meters
  • Scattered at 3,000' AGL
  • Few at 8,000' AGL
  • Thunderstorm
  • Rain
TAF YPEA 201640Z 2018/2112 02007KT CAVOK FM210300 30012KT 9999 -SHRA SCT030 BKN100 PROB30 INTER 2106/2112 VRB25G40KT 4000 TSRA SCT030 FEW080CB
Issued Apr-20 @ 16:40 UTC
(2 hours ago)
Valid From Apr-20 @ 18:00 UTC
(30 minutes ago)
Valid To Apr-21 @ 12:00 UTC
(in 17 hours)
Apr-20 @ 18:00 - Apr-21 @ 03:00
Wind Visibility
20° at 7 knots 10,000+ meters
Clouds
  • No significant clouds
Conditions
From Apr-21 @ 03:00 - Apr-21 @ 12:00
Wind Visibility
300° at 12 knots 10,000+ meters
Clouds
  • Scattered at 3,000' AGL
  • Broken at 10,000' AGL
Conditions
  • Light Rain
Probability 30% Temporary Apr-21 @ 06:00 - Apr-21 @ 12:00
Wind Visibility
Variable at 25 knots
 Gusting to 40 knots
4,007 meters
Clouds
  • Scattered at 3,000' AGL
  • Few at 8,000' AGL
Conditions
  • Thunderstorm
  • Rain